sensor_id;sensor_type;location;lat;lon;timestamp;noise_LAeq;noise_LA_min;noise_LA_max;noise_LA01;noise_LA95
46393;Laerm;32099;53.588;10.176;2023-04-01T00:00:06;39.31;35.93;55.70;;
46393;Laerm;32099;53.588;10.176;2023-04-01T00:02:31;43.95;36.65;60.97;;
46393;Laerm;32099;53.588;10.176;2023-04-01T00:04:57;44.15;39.80;68.53;;
46393;Laerm;32099;53.588;10.176;2023-04-01T00:07:22;45.41;36.01;60.04;;
46393;Laerm;32099;53.588;10.176;2023-04-01T00:09:47;40.63;36.72;54.60;;
46393;Laerm;32099;53.588;10.176;2023-04-01T00:12:13;40.38;36.92;59.41;;
46393;Laerm;32099;53.588;10.176;2023-04-01T00:14:38;40.44;37.14;56.85;;
46393;Laerm;32099;53.588;10.176;2023-04-01T00:17:04;40.12;36.60;60.85;;
46393;Laerm;32099;53.588;10.176;2023-04-01T00:19:30;39.33;35.61;58.92;;
46393;Laerm;32099;53.588;10.176;2023-04-01T00:21:56;39.34;35.35;59.92;;
46393;Laerm;32099;53.588;10.176;2023-04-01T00:24:22;42.54;35.97;60.63;;
46393;Laerm;32099;53.588;10.176;2023-04-01T00:26:47;41.52;36.76;56.68;;
46393;Laerm;32099;53.588;10.176;2023-04-01T00:29:13;41.80;37.75;62.22;;
46393;Laerm;32099;53.588;10.176;2023-04-01T00:31:38;41.23;36.87;60.32;;
46393;Laerm;32099;53.588;10.176;2023-04-01T00:34:03;40.60;36.75;57.66;;
46393;Laerm;32099;53.588;10.176;2023-04-01T00:36:29;43.43;39.36;58.49;;
46393;Laerm;32099;53.588;10.176;2023-04-01T00:38:54;44.72;40.24;65.06;;
46393;Laerm;32099;53.588;10.176;2023-04-01T00:41:20;45.11;40.78;63.42;;
46393;Laerm;32099;53.588;10.176;2023-04-01T00:43:49;44.48;39.90;64.74;;
46393;Laerm;32099;53.588;10.176;2023-04-01T00:46:15;42.90;38.33;59.80;;
46393;Laerm;32099;53.588;10.176;2023-04-01T00:48:48;43.16;38.39;61.84;;
46393;Laerm;32099;53.588;10.176;2023-04-01T00:51:17;43.79;39.36;58.26;;
46393;Laerm;32099;53.588;10.176;2023-04-01T00:53:47;51.01;40.18;70.27;;
46393;Laerm;32099;53.588;10.176;2023-04-01T00:56:20;45.88;39.56;64.24;;
46393;Laerm;32099;53.588;10.176;2023-04-01T00:58:54;49.10;39.34;64.61;;
46393;Laerm;32099;53.588;10.176;2023-04-01T01:01:22;46.09;39.26;64.40;;
46393;Laerm;32099;53.588;10.176;2023-04-01T01:03:48;43.27;39.06;64.12;;
46393;Laerm;32099;53.588;10.176;2023-04-01T01:06:23;42.81;39.03;60.49;;
46393;Laerm;32099;53.588;10.176;2023-04-01T01:11:47;42.95;38.83;60.85;;
46393;Laerm;32099;53.588;10.176;2023-04-01T01:14:25;48.00;39.19;66.00;;
46393;Laerm;32099;53.588;10.176;2023-04-01T01:17:00;42.34;38.50;56.37;;
46393;Laerm;32099;53.588;10.176;2023-04-01T01:19:45;41.80;38.01;61.69;;
46393;Laerm;32099;53.588;10.176;2023-04-01T01:27:58;40.14;36.65;58.50;;
46393;Laerm;32099;53.588;10.176;2023-04-01T01:31:07;40.87;37.32;59.12;;
46393;Laerm;32099;53.588;10.176;2023-04-01T01:36:23;40.72;36.48;59.86;;
46393;Laerm;32099;53.588;10.176;2023-04-01T01:38:51;40.36;36.77;58.29;;
46393;Laerm;32099;53.588;10.176;2023-04-01T01:41:18;39.37;36.29;55.03;;
46393;Laerm;32099;53.588;10.176;2023-04-01T01:43:48;40.41;36.15;55.37;;
46393;Laerm;32099;53.588;10.176;2023-04-01T01:46:18;41.17;36.57;55.86;;
46393;Laerm;32099;53.588;10.176;2023-04-01T01:48:45;42.25;36.52;57.21;;
46393;Laerm;32099;53.588;10.176;2023-04-01T01:51:12;41.84;36.02;59.17;;
46393;Laerm;32099;53.588;10.176;2023-04-01T01:53:38;41.16;37.36;60.62;;
46393;Laerm;32099;53.588;10.176;2023-04-01T01:56:03;40.41;36.40;57.71;;
46393;Laerm;32099;53.588;10.176;2023-04-01T01:58:38;40.21;36.02;61.41;;
46393;Laerm;32099;53.588;10.176;2023-04-01T02:01:17;40.33;36.61;56.39;;
46393;Laerm;32099;53.588;10.176;2023-04-01T02:03:45;39.90;36.29;56.77;;
46393;Laerm;32099;53.588;10.176;2023-04-01T02:06:16;39.93;36.55;57.26;;
46393;Laerm;32099;53.588;10.176;2023-04-01T02:08:45;40.64;36.28;58.60;;
46393;Laerm;32099;53.588;10.176;2023-04-01T02:11:13;39.44;35.15;55.13;;
46393;Laerm;32099;53.588;10.176;2023-04-01T02:16:19;39.67;35.77;54.84;;
46393;Laerm;32099;53.588;10.176;2023-04-01T02:18:48;39.54;36.29;54.48;;
46393;Laerm;32099;53.588;10.176;2023-04-01T02:21:16;39.60;34.84;53.62;;
46393;Laerm;32099;53.588;10.176;2023-04-01T02:23:45;38.88;35.78;55.11;;
46393;Laerm;32099;53.588;10.176;2023-04-01T02:26:12;38.10;34.32;51.29;;
46393;Laerm;32099;53.588;10.176;2023-04-01T02:28:40;38.29;35.06;52.09;;
46393;Laerm;32099;53.588;10.176;2023-04-01T02:31:09;39.79;36.05;56.41;;
46393;Laerm;32099;53.588;10.176;2023-04-01T02:33:36;39.19;36.02;50.76;;
46393;Laerm;32099;53.588;10.176;2023-04-01T02:36:04;38.76;35.37;53.18;;
46393;Laerm;32099;53.588;10.176;2023-04-01T02:38:29;39.58;35.53;55.20;;
46393;Laerm;32099;53.588;10.176;2023-04-01T02:41:00;39.31;34.51;56.59;;
46393;Laerm;32099;53.588;10.176;2023-04-01T02:43:26;38.49;34.14;52.12;;
46393;Laerm;32099;53.588;10.176;2023-04-01T02:45:52;39.02;34.45;53.27;;
46393;Laerm;32099;53.588;10.176;2023-04-01T02:48:17;50.02;34.56;68.93;;
46393;Laerm;32099;53.588;10.176;2023-04-01T02:50:42;38.85;35.30;52.32;;
46393;Laerm;32099;53.588;10.176;2023-04-01T02:53:08;43.65;36.75;60.36;;
46393;Laerm;32099;53.588;10.176;2023-04-01T02:55:34;46.50;42.05;59.59;;
46393;Laerm;32099;53.588;10.176;2023-04-01T02:57:59;49.12;44.65;63.13;;
46393;Laerm;32099;53.588;10.176;2023-04-01T03:00:25;51.63;44.35;64.10;;
46393;Laerm;32099;53.588;10.176;2023-04-01T03:02:50;51.53;47.18;64.15;;
46393;Laerm;32099;53.588;10.176;2023-04-01T03:05:15;50.42;45.79;64.53;;
46393;Laerm;32099;53.588;10.176;2023-04-01T03:07:41;49.19;42.14;65.44;;
46393;Laerm;32099;53.588;10.176;2023-04-01T03:10:07;47.40;40.73;62.57;;
46393;Laerm;32099;53.588;10.176;2023-04-01T03:12:32;47.29;41.27;65.33;;
46393;Laerm;32099;53.588;10.176;2023-04-01T03:14:57;49.13;42.08;63.44;;
46393;Laerm;32099;53.588;10.176;2023-04-01T03:17:23;50.76;44.65;64.70;;
46393;Laerm;32099;53.588;10.176;2023-04-01T03:19:48;49.79;44.86;64.99;;
46393;Laerm;32099;53.588;10.176;2023-04-01T03:22:13;50.67;45.39;64.16;;
46393;Laerm;32099;53.588;10.176;2023-04-01T03:24:39;51.11;43.70;68.73;;
46393;Laerm;32099;53.588;10.176;2023-04-01T03:27:04;49.14;42.10;65.19;;
46393;Laerm;32099;53.588;10.176;2023-04-01T03:29:29;47.91;39.69;67.56;;
46393;Laerm;32099;53.588;10.176;2023-04-01T03:31:55;44.88;39.11;61.29;;
46393;Laerm;32099;53.588;10.176;2023-04-01T03:34:23;44.79;39.65;56.56;;
46393;Laerm;32099;53.588;10.176;2023-04-01T03:36:48;45.32;39.36;57.58;;
46393;Laerm;32099;53.588;10.176;2023-04-01T03:39:13;46.28;40.34;60.74;;
46393;Laerm;32099;53.588;10.176;2023-04-01T03:41:39;49.48;41.04;63.97;;
46393;Laerm;32099;53.588;10.176;2023-04-01T03:44:04;49.78;40.84;65.08;;
46393;Laerm;32099;53.588;10.176;2023-04-01T03:46:29;50.76;41.48;66.57;;
46393;Laerm;32099;53.588;10.176;2023-04-01T03:48:55;51.08;41.06;71.79;;
46393;Laerm;32099;53.588;10.176;2023-04-01T03:51:20;50.58;40.54;65.05;;
46393;Laerm;32099;53.588;10.176;2023-04-01T03:53:45;50.95;40.59;64.61;;
46393;Laerm;32099;53.588;10.176;2023-04-01T03:56:11;50.71;40.09;64.62;;
46393;Laerm;32099;53.588;10.176;2023-04-01T03:58:36;55.27;40.25;71.34;;
46393;Laerm;32099;53.588;10.176;2023-04-01T04:01:02;55.78;40.37;71.68;;
46393;Laerm;32099;53.588;10.176;2023-04-01T04:03:27;56.72;41.17;71.95;;
46393;Laerm;32099;53.588;10.176;2023-04-01T04:05:53;57.07;40.07;71.05;;
46393;Laerm;32099;53.588;10.176;2023-04-01T04:08:18;57.65;40.09;71.42;;
46393;Laerm;32099;53.588;10.176;2023-04-01T04:10:46;56.58;40.89;70.62;;
46393;Laerm;32099;53.588;10.176;2023-04-01T04:13:12;56.26;40.11;70.13;;
46393;Laerm;32099;53.588;10.176;2023-04-01T04:15:38;55.71;42.51;70.06;;
46393;Laerm;32099;53.588;10.176;2023-04-01T04:18:03;54.95;41.82;67.13;;
46393;Laerm;32099;53.588;10.176;2023-04-01T04:20:29;53.17;39.98;67.06;;
46393;Laerm;32099;53.588;10.176;2023-04-01T04:22:54;54.15;40.58;66.40;;
46393;Laerm;32099;53.588;10.176;2023-04-01T04:25:19;54.98;42.58;67.21;;
46393;Laerm;32099;53.588;10.176;2023-04-01T04:27:45;56.20;44.12;68.79;;
46393;Laerm;32099;53.588;10.176;2023-04-01T04:30:10;57.97;46.44;76.85;;
46393;Laerm;32099;53.588;10.176;2023-04-01T04:32:36;52.59;45.41;66.13;;
46393;Laerm;32099;53.588;10.176;2023-04-01T04:35:01;55.70;43.64;70.52;;
46393;Laerm;32099;53.588;10.176;2023-04-01T04:37:27;55.06;42.92;70.25;;
46393;Laerm;32099;53.588;10.176;2023-04-01T04:39:52;51.58;43.05;69.80;;
46393;Laerm;32099;53.588;10.176;2023-04-01T04:42:17;53.85;41.98;78.71;;
46393;Laerm;32099;53.588;10.176;2023-04-01T04:44:43;48.29;42.58;62.12;;
46393;Laerm;32099;53.588;10.176;2023-04-01T04:47:08;49.12;42.00;63.82;;
46393;Laerm;32099;53.588;10.176;2023-04-01T04:49:33;47.10;42.33;63.37;;
46393;Laerm;32099;53.588;10.176;2023-04-01T04:51:59;45.88;41.72;62.81;;
46393;Laerm;32099;53.588;10.176;2023-04-01T04:54:24;47.45;40.90;62.23;;
46393;Laerm;32099;53.588;10.176;2023-04-01T04:56:51;52.66;42.06;67.28;;
46393;Laerm;32099;53.588;10.176;2023-04-01T04:59:17;52.97;41.24;67.71;;
46393;Laerm;32099;53.588;10.176;2023-04-01T05:01:42;55.25;40.93;72.33;;
46393;Laerm;32099;53.588;10.176;2023-04-01T05:04:08;54.54;41.24;70.76;;
46393;Laerm;32099;53.588;10.176;2023-04-01T05:06:33;45.20;40.05;62.16;;
46393;Laerm;32099;53.588;10.176;2023-04-01T05:08:58;44.73;39.59;60.65;;
46393;Laerm;32099;53.588;10.176;2023-04-01T05:11:24;46.34;41.72;65.58;;
46393;Laerm;32099;53.588;10.176;2023-04-01T05:13:51;47.21;42.15;69.38;;
46393;Laerm;32099;53.588;10.176;2023-04-01T05:16:19;46.80;42.53;62.42;;
46393;Laerm;32099;53.588;10.176;2023-04-01T05:18:46;52.72;42.95;73.26;;
46393;Laerm;32099;53.588;10.176;2023-04-01T05:21:13;59.29;45.50;79.45;;
46393;Laerm;32099;53.588;10.176;2023-04-01T05:23:39;65.78;47.06;86.33;;
46393;Laerm;32099;53.588;10.176;2023-04-01T05:26:06;57.84;46.61;80.83;;
46393;Laerm;32099;53.588;10.176;2023-04-01T05:28:32;49.63;43.29;65.85;;
46393;Laerm;32099;53.588;10.176;2023-04-01T05:31:01;52.53;44.29;70.21;;
46393;Laerm;32099;53.588;10.176;2023-04-01T05:33:27;55.56;44.86;69.88;;
46393;Laerm;32099;53.588;10.176;2023-04-01T05:35:53;57.57;44.14;75.56;;
46393;Laerm;32099;53.588;10.176;2023-04-01T05:38:19;55.05;42.57;72.72;;
46393;Laerm;32099;53.588;10.176;2023-04-01T05:40:44;54.92;42.25;71.77;;
46393;Laerm;32099;53.588;10.176;2023-04-01T05:43:10;51.76;42.64;71.78;;
46393;Laerm;32099;53.588;10.176;2023-04-01T05:45:35;51.22;41.50;68.08;;
46393;Laerm;32099;53.588;10.176;2023-04-01T05:48:01;46.98;41.66;60.75;;
46393;Laerm;32099;53.588;10.176;2023-04-01T05:50:26;54.05;42.91;71.63;;
46393;Laerm;32099;53.588;10.176;2023-04-01T05:52:52;47.14;40.63;64.34;;
46393;Laerm;32099;53.588;10.176;2023-04-01T05:55:17;49.44;40.04;66.08;;
46393;Laerm;32099;53.588;10.176;2023-04-01T05:57:44;44.57;40.14;62.43;;
46393;Laerm;32099;53.588;10.176;2023-04-01T06:00:10;44.49;40.10;58.48;;
46393;Laerm;32099;53.588;10.176;2023-04-01T06:02:36;51.03;40.54;67.95;;
46393;Laerm;32099;53.588;10.176;2023-04-01T06:05:19;46.54;40.39;63.86;;
46393;Laerm;32099;53.588;10.176;2023-04-01T06:07:45;48.67;40.39;61.11;;
46393;Laerm;32099;53.588;10.176;2023-04-01T06:10:18;50.97;41.46;68.41;;
46393;Laerm;32099;53.588;10.176;2023-04-01T06:12:59;48.29;40.87;65.66;;
46393;Laerm;32099;53.588;10.176;2023-04-01T06:15:53;55.08;41.99;71.38;;
46393;Laerm;32099;53.588;10.176;2023-04-01T06:18:33;51.71;42.02;67.70;;
46393;Laerm;32099;53.588;10.176;2023-04-01T06:21:27;49.55;41.31;66.10;;
46393;Laerm;32099;53.588;10.176;2023-04-01T06:27:20;50.95;41.48;70.55;;
46393;Laerm;32099;53.588;10.176;2023-04-01T06:30:04;54.94;41.93;71.85;;
46393;Laerm;32099;53.588;10.176;2023-04-01T06:32:46;54.51;43.17;71.89;;
46393;Laerm;32099;53.588;10.176;2023-04-01T06:35:26;52.46;42.38;69.05;;
46393;Laerm;32099;53.588;10.176;2023-04-01T06:41:56;52.25;41.28;72.92;;
46393;Laerm;32099;53.588;10.176;2023-04-01T06:53:09;52.03;40.83;69.01;;
46393;Laerm;32099;53.588;10.176;2023-04-01T06:55:44;47.98;40.93;61.08;;
46393;Laerm;32099;53.588;10.176;2023-04-01T06:58:32;53.02;42.05;67.61;;
46393;Laerm;32099;53.588;10.176;2023-04-01T07:01:03;55.57;41.81;71.50;;
46393;Laerm;32099;53.588;10.176;2023-04-01T07:03:33;51.01;40.59;67.51;;
46393;Laerm;32099;53.588;10.176;2023-04-01T07:06:08;47.44;40.70;65.06;;
46393;Laerm;32099;53.588;10.176;2023-04-01T07:08:38;51.82;41.36;66.33;;
46393;Laerm;32099;53.588;10.176;2023-04-01T07:11:09;48.28;41.55;63.71;;
46393;Laerm;32099;53.588;10.176;2023-04-01T07:13:51;50.49;40.83;67.97;;
46393;Laerm;32099;53.588;10.176;2023-04-01T07:21:23;51.15;42.07;68.35;;
46393;Laerm;32099;53.588;10.176;2023-04-01T07:23:51;56.47;41.77;73.92;;
46393;Laerm;32099;53.588;10.176;2023-04-01T07:26:23;46.00;39.90;64.98;;
46393;Laerm;32099;53.588;10.176;2023-04-01T07:28:51;52.36;40.83;67.16;;
46393;Laerm;32099;53.588;10.176;2023-04-01T07:31:30;51.94;40.99;64.77;;
46393;Laerm;32099;53.588;10.176;2023-04-01T07:34:09;45.70;41.05;62.42;;
46393;Laerm;32099;53.588;10.176;2023-04-01T07:36:48;54.57;41.53;73.15;;
46393;Laerm;32099;53.588;10.176;2023-04-01T07:39:59;55.78;42.50;71.16;;
46393;Laerm;32099;53.588;10.176;2023-04-01T07:42:53;55.48;41.93;70.75;;
46393;Laerm;32099;53.588;10.176;2023-04-01T07:45:37;56.70;41.45;78.08;;
46393;Laerm;32099;53.588;10.176;2023-04-01T07:56:34;56.99;41.10;71.75;;
46393;Laerm;32099;53.588;10.176;2023-04-01T07:59:12;57.40;40.46;74.36;;
46393;Laerm;32099;53.588;10.176;2023-04-01T08:07:36;52.06;42.35;72.14;;
46393;Laerm;32099;53.588;10.176;2023-04-01T08:10:22;53.55;41.20;69.25;;
46393;Laerm;32099;53.588;10.176;2023-04-01T08:13:12;52.42;43.37;75.02;;
46393;Laerm;32099;53.588;10.176;2023-04-01T08:15:55;51.66;43.25;67.60;;
46393;Laerm;32099;53.588;10.176;2023-04-01T08:21:25;53.04;41.96;73.89;;
46393;Laerm;32099;53.588;10.176;2023-04-01T08:24:07;53.58;41.54;68.36;;
46393;Laerm;32099;53.588;10.176;2023-04-01T08:26:39;49.74;41.94;66.74;;
46393;Laerm;32099;53.588;10.176;2023-04-01T08:29:16;52.61;41.45;72.11;;
46393;Laerm;32099;53.588;10.176;2023-04-01T08:31:45;55.13;42.34;73.42;;
46393;Laerm;32099;53.588;10.176;2023-04-01T08:34:18;54.19;43.01;71.18;;
46393;Laerm;32099;53.588;10.176;2023-04-01T08:36:50;53.54;42.53;70.76;;
46393;Laerm;32099;53.588;10.176;2023-04-01T08:39:32;52.25;41.92;69.65;;
46393;Laerm;32099;53.588;10.176;2023-04-01T08:52:52;51.12;40.69;69.66;;
46393;Laerm;32099;53.588;10.176;2023-04-01T09:00:53;55.78;41.50;73.16;;
46393;Laerm;32099;53.588;10.176;2023-04-01T09:06:40;55.62;41.81;71.93;;
46393;Laerm;32099;53.588;10.176;2023-04-01T09:12:26;54.01;42.00;67.74;;
46393;Laerm;32099;53.588;10.176;2023-04-01T09:15:01;51.53;42.16;72.44;;
46393;Laerm;32099;53.588;10.176;2023-04-01T09:17:48;57.19;42.18;73.33;;
46393;Laerm;32099;53.588;10.176;2023-04-01T09:20:42;50.55;41.11;67.96;;
46393;Laerm;32099;53.588;10.176;2023-04-01T09:23:12;51.44;41.36;66.11;;
46393;Laerm;32099;53.588;10.176;2023-04-01T09:32:16;49.16;42.82;66.15;;
46393;Laerm;32099;53.588;10.176;2023-04-01T09:34:57;52.94;41.52;67.50;;
46393;Laerm;32099;53.588;10.176;2023-04-01T09:37:37;52.00;41.17;65.50;;
46393;Laerm;32099;53.588;10.176;2023-04-01T09:40:18;55.03;41.33;71.16;;
46393;Laerm;32099;53.588;10.176;2023-04-01T09:42:56;53.51;43.12;68.92;;
46393;Laerm;32099;53.588;10.176;2023-04-01T09:45:52;54.25;42.15;70.00;;
46393;Laerm;32099;53.588;10.176;2023-04-01T09:51:52;52.96;41.84;72.69;;
46393;Laerm;32099;53.588;10.176;2023-04-01T09:54:31;52.40;42.23;70.03;;
46393;Laerm;32099;53.588;10.176;2023-04-01T09:59:48;55.11;41.76;70.19;;
46393;Laerm;32099;53.588;10.176;2023-04-01T10:02:54;56.43;41.63;68.05;;
46393;Laerm;32099;53.588;10.176;2023-04-01T10:17:12;53.84;42.08;70.83;;
46393;Laerm;32099;53.588;10.176;2023-04-01T10:28:19;50.79;40.28;66.92;;
46393;Laerm;32099;53.588;10.176;2023-04-01T10:39:45;54.11;41.17;68.79;;
46393;Laerm;32099;53.588;10.176;2023-04-01T10:42:28;55.93;41.29;73.56;;
46393;Laerm;32099;53.588;10.176;2023-04-01T10:45:19;50.89;41.05;67.04;;
46393;Laerm;32099;53.588;10.176;2023-04-01T10:56:46;49.15;41.40;66.12;;
46393;Laerm;32099;53.588;10.176;2023-04-01T11:02:33;55.40;40.27;72.92;;
46393;Laerm;32099;53.588;10.176;2023-04-01T11:05:26;54.25;39.68;70.99;;
46393;Laerm;32099;53.588;10.176;2023-04-01T11:08:33;55.47;41.87;72.28;;
46393;Laerm;32099;53.588;10.176;2023-04-01T11:14:42;52.79;41.28;68.41;;
46393;Laerm;32099;53.588;10.176;2023-04-01T11:23:14;57.10;42.07;72.77;;
46393;Laerm;32099;53.588;10.176;2023-04-01T11:26:07;52.08;41.46;69.15;;
46393;Laerm;32099;53.588;10.176;2023-04-01T11:31:55;53.11;40.35;70.54;;
46393;Laerm;32099;53.588;10.176;2023-04-01T11:38:07;54.32;40.13;68.74;;
46393;Laerm;32099;53.588;10.176;2023-04-01T11:40:49;46.83;40.40;61.69;;
46393;Laerm;32099;53.588;10.176;2023-04-01T11:43:35;47.74;40.18;73.90;;
46393;Laerm;32099;53.588;10.176;2023-04-01T11:46:16;61.88;42.36;80.87;;
46393;Laerm;32099;53.588;10.176;2023-04-01T11:49:05;50.03;42.13;69.46;;
46393;Laerm;32099;53.588;10.176;2023-04-01T11:52:01;51.99;41.22;65.58;;
46393;Laerm;32099;53.588;10.176;2023-04-01T12:00:38;56.35;41.16;80.58;;
46393;Laerm;32099;53.588;10.176;2023-04-01T12:06:11;50.66;41.05;66.53;;
46393;Laerm;32099;53.588;10.176;2023-04-01T12:14:41;49.95;41.44;66.60;;
46393;Laerm;32099;53.588;10.176;2023-04-01T12:17:26;56.41;40.97;79.33;;
46393;Laerm;32099;53.588;10.176;2023-04-01T12:26:10;53.07;40.38;70.46;;
46393;Laerm;32099;53.588;10.176;2023-04-01T12:31:31;56.77;40.99;74.57;;
46393;Laerm;32099;53.588;10.176;2023-04-01T12:34:10;56.12;41.71;73.41;;
46393;Laerm;32099;53.588;10.176;2023-04-01T12:40:02;55.50;41.64;71.22;;
46393;Laerm;32099;53.588;10.176;2023-04-01T12:45:27;53.19;40.84;68.40;;
46393;Laerm;32099;53.588;10.176;2023-04-01T12:48:16;52.84;40.91;68.68;;
46393;Laerm;32099;53.588;10.176;2023-04-01T12:59:56;54.10;41.86;70.20;;
46393;Laerm;32099;53.588;10.176;2023-04-01T13:05:20;51.40;40.68;68.29;;
46393;Laerm;32099;53.588;10.176;2023-04-01T13:08:04;56.04;41.33;70.80;;
46393;Laerm;32099;53.588;10.176;2023-04-01T13:16:19;50.70;41.61;68.62;;
46393;Laerm;32099;53.588;10.176;2023-04-01T13:19:05;48.59;41.62;69.37;;
46393;Laerm;32099;53.588;10.176;2023-04-01T13:24:22;50.79;40.55;66.89;;
46393;Laerm;32099;53.588;10.176;2023-04-01T13:27:09;52.54;40.75;69.11;;
46393;Laerm;32099;53.588;10.176;2023-04-01T13:29:46;56.12;40.45;70.14;;
46393;Laerm;32099;53.588;10.176;2023-04-01T13:33:37;55.29;41.28;70.99;;
46393;Laerm;32099;53.588;10.176;2023-04-01T13:35:41;52.35;41.56;68.37;;
46393;Laerm;32099;53.588;10.176;2023-04-01T13:47:27;53.01;39.95;67.05;;
46393;Laerm;32099;53.588;10.176;2023-04-01T13:50:20;57.01;41.08;72.08;;
46393;Laerm;32099;53.588;10.176;2023-04-01T13:56:07;56.46;43.07;73.27;;
46393;Laerm;32099;53.588;10.176;2023-04-01T13:59:02;50.16;40.32;68.40;;
46393;Laerm;32099;53.588;10.176;2023-04-01T14:01:45;51.26;42.37;66.95;;
46393;Laerm;32099;53.588;10.176;2023-04-01T14:10:01;53.23;41.38;70.44;;
46393;Laerm;32099;53.588;10.176;2023-04-01T14:12:35;53.47;40.56;71.86;;
46393;Laerm;32099;53.588;10.176;2023-04-01T14:17:54;51.99;42.59;67.81;;
46393;Laerm;32099;53.588;10.176;2023-04-01T14:20:29;54.58;41.35;69.23;;
46393;Laerm;32099;53.588;10.176;2023-04-01T14:26:07;53.77;40.83;66.55;;
46393;Laerm;32099;53.588;10.176;2023-04-01T14:31:18;52.48;41.38;69.73;;
46393;Laerm;32099;53.588;10.176;2023-04-01T14:34:05;44.08;39.97;57.41;;
46393;Laerm;32099;53.588;10.176;2023-04-01T14:36:47;55.12;40.11;71.82;;
46393;Laerm;32099;53.588;10.176;2023-04-01T14:47:48;54.27;41.87;74.00;;
46393;Laerm;32099;53.588;10.176;2023-04-01T14:50:20;54.09;43.65;69.80;;
46393;Laerm;32099;53.588;10.176;2023-04-01T14:52:56;46.82;41.89;61.57;;
46393;Laerm;32099;53.588;10.176;2023-04-01T14:55:36;47.24;41.50;54.08;;
46393;Laerm;32099;53.588;10.176;2023-04-01T14:58:12;45.78;40.56;63.27;;
46393;Laerm;32099;53.588;10.176;2023-04-01T15:01:31;55.19;42.27;69.69;;
46393;Laerm;32099;53.588;10.176;2023-04-01T15:10:17;49.93;41.47;69.85;;
46393;Laerm;32099;53.588;10.176;2023-04-01T15:23:49;54.12;41.63;71.56;;
46393;Laerm;32099;53.588;10.176;2023-04-01T15:26:30;52.35;41.73;70.69;;
46393;Laerm;32099;53.588;10.176;2023-04-01T15:29:25;52.83;41.70;71.28;;
46393;Laerm;32099;53.588;10.176;2023-04-01T15:32:18;52.11;40.68;71.01;;
46393;Laerm;32099;53.588;10.176;2023-04-01T15:40:30;50.95;41.23;68.19;;
46393;Laerm;32099;53.588;10.176;2023-04-01T15:45:58;51.31;40.80;68.65;;
46393;Laerm;32099;53.588;10.176;2023-04-01T15:48:44;53.98;40.83;78.08;;
46393;Laerm;32099;53.588;10.176;2023-04-01T15:51:19;50.53;40.02;65.37;;
46393;Laerm;32099;53.588;10.176;2023-04-01T15:54:21;47.85;38.37;67.95;;
46393;Laerm;32099;53.588;10.176;2023-04-01T15:59:22;53.67;39.80;66.66;;
46393;Laerm;32099;53.588;10.176;2023-04-01T16:02:13;53.10;40.62;64.57;;
46393;Laerm;32099;53.588;10.176;2023-04-01T16:04:59;54.82;46.87;67.14;;
46393;Laerm;32099;53.588;10.176;2023-04-01T16:16:05;45.21;40.85;58.88;;
46393;Laerm;32099;53.588;10.176;2023-04-01T16:18:43;53.97;40.77;67.53;;
46393;Laerm;32099;53.588;10.176;2023-04-01T16:21:46;52.34;40.71;66.30;;
46393;Laerm;32099;53.588;10.176;2023-04-01T16:26:55;44.07;40.13;60.78;;
46393;Laerm;32099;53.588;10.176;2023-04-01T16:29:30;46.35;40.22;67.02;;
46393;Laerm;32099;53.588;10.176;2023-04-01T16:34:45;51.10;40.25;67.72;;
46393;Laerm;32099;53.588;10.176;2023-04-01T16:37:20;52.96;39.59;71.91;;
46393;Laerm;32099;53.588;10.176;2023-04-01T16:40:10;52.58;40.09;68.15;;
46393;Laerm;32099;53.588;10.176;2023-04-01T16:45:53;49.89;39.72;67.34;;
46393;Laerm;32099;53.588;10.176;2023-04-01T16:48:25;45.70;39.93;60.42;;
46393;Laerm;32099;53.588;10.176;2023-04-01T16:51:03;51.00;39.72;70.21;;
46393;Laerm;32099;53.588;10.176;2023-04-01T16:56:13;53.23;38.88;70.30;;
46393;Laerm;32099;53.588;10.176;2023-04-01T16:59:01;51.49;38.43;71.36;;
46393;Laerm;32099;53.588;10.176;2023-04-01T17:01:53;45.71;39.09;63.60;;
46393;Laerm;32099;53.588;10.176;2023-04-01T17:04:30;42.94;38.14;56.74;;
46393;Laerm;32099;53.588;10.176;2023-04-01T17:07:38;41.55;36.99;52.02;;
46393;Laerm;32099;53.588;10.176;2023-04-01T17:10:25;45.77;37.49;67.33;;
46393;Laerm;32099;53.588;10.176;2023-04-01T17:15:54;50.21;39.08;68.08;;
46393;Laerm;32099;53.588;10.176;2023-04-01T17:24:38;44.91;39.84;58.01;;
46393;Laerm;32099;53.588;10.176;2023-04-01T17:27:25;44.76;39.26;61.08;;
46393;Laerm;32099;53.588;10.176;2023-04-01T17:30:47;47.24;41.09;60.12;;
46393;Laerm;32099;53.588;10.176;2023-04-01T17:35:49;48.39;39.28;66.26;;
46393;Laerm;32099;53.588;10.176;2023-04-01T17:41:29;51.12;38.80;67.25;;
46393;Laerm;32099;53.588;10.176;2023-04-01T17:44:16;50.06;38.22;68.04;;
46393;Laerm;32099;53.588;10.176;2023-04-01T17:49:29;48.99;36.96;66.06;;
46393;Laerm;32099;53.588;10.176;2023-04-01T17:52:09;49.16;37.17;64.25;;
46393;Laerm;32099;53.588;10.176;2023-04-01T17:54:58;52.55;40.38;71.34;;
46393;Laerm;32099;53.588;10.176;2023-04-01T17:57:39;50.69;37.87;72.32;;
46393;Laerm;32099;53.588;10.176;2023-04-01T18:08:17;44.93;38.24;61.34;;
46393;Laerm;32099;53.588;10.176;2023-04-01T18:11:00;43.67;38.11;59.70;;
46393;Laerm;32099;53.588;10.176;2023-04-01T18:19:18;49.53;39.14;65.69;;
46393;Laerm;32099;53.588;10.176;2023-04-01T18:21:49;50.15;38.76;69.28;;
46393;Laerm;32099;53.588;10.176;2023-04-01T18:24:33;50.08;39.47;69.31;;
46393;Laerm;32099;53.588;10.176;2023-04-01T18:27:11;42.23;38.33;55.99;;
46393;Laerm;32099;53.588;10.176;2023-04-01T18:32:36;40.97;37.10;52.76;;
46393;Laerm;32099;53.588;10.176;2023-04-01T18:35:21;51.06;40.24;70.18;;
46393;Laerm;32099;53.588;10.176;2023-04-01T18:38:12;50.57;37.65;70.93;;
46393;Laerm;32099;53.588;10.176;2023-04-01T18:40:43;41.67;37.49;53.84;;
46393;Laerm;32099;53.588;10.176;2023-04-01T18:43:27;41.89;37.29;50.02;;
46393;Laerm;32099;53.588;10.176;2023-04-01T18:46:01;40.37;36.05;54.62;;
46393;Laerm;32099;53.588;10.176;2023-04-01T18:48:42;41.26;36.66;59.51;;
46393;Laerm;32099;53.588;10.176;2023-04-01T18:51:21;46.51;38.48;73.06;;
46393;Laerm;32099;53.588;10.176;2023-04-01T18:53:58;45.82;37.98;61.43;;
46393;Laerm;32099;53.588;10.176;2023-04-01T18:56:30;48.68;40.02;63.29;;
46393;Laerm;32099;53.588;10.176;2023-04-01T18:59:12;52.64;38.86;70.56;;
46393;Laerm;32099;53.588;10.176;2023-04-01T19:02:02;45.52;39.28;57.30;;
46393;Laerm;32099;53.588;10.176;2023-04-01T19:04:45;45.55;39.00;69.21;;
46393;Laerm;32099;53.588;10.176;2023-04-01T19:07:41;51.96;39.69;69.39;;
46393;Laerm;32099;53.588;10.176;2023-04-01T19:13:03;44.79;39.01;70.34;;
46393;Laerm;32099;53.588;10.176;2023-04-01T19:15:44;45.77;37.69;70.69;;
46393;Laerm;32099;53.588;10.176;2023-04-01T19:21:26;43.98;37.58;64.30;;
46393;Laerm;32099;53.588;10.176;2023-04-01T19:26:51;40.06;35.70;51.03;;
46393;Laerm;32099;53.588;10.176;2023-04-01T19:29:46;40.89;35.64;61.01;;
46393;Laerm;32099;53.588;10.176;2023-04-01T19:32:36;42.26;35.76;67.76;;